Terminal Aerodrome Forecast
Issued by NWS Duluth, MN

Home | Current Version | Previous Version | Text Only | Print | Product List | Glossary On
Versions: 1 2 3 4 5 6 7 8 9 10 11 12 13 14 15 16 17 18
000
FTUS43 KDLH 211136
TAFINL
TAF
KINL 211136Z 2112/2212 32016G25KT 5SM -SHSN BKN025
     FM211700 31016G23KT P6SM BKN030
     FM212300 29011G16KT P6SM BKN030
     FM220300 28008KT P6SM SCT030
      AMD NOT SKED=

USA.gov is the U.S. government's official web portal to all federal, state and local government web resources and services.